Time;durP1;ratioP1;P1;durP2;ratioP2;P2;SDS_P1;SDS_P2;PMS_P1;PMS_P2;Temp;Humidity;BMP_temperature;BMP_pressure;BME280_temperature;BME280_humidity;BME280_pressure;Samples;Min_cycle;Max_cycle;Signal;HPM_P1;HPM_P2
2021/11/14 00:00:11;;;;;;;26.23;14.60;;;;;;;3.85;100.00;101010.00;5077054;28;20273;-81
2021/11/14 00:02:37;;;;;;;27.30;14.37;;;;;;;3.86;100.00;101015.19;5078506;28;21084;-82
2021/11/14 00:05:04;;;;;;;21.57;12.13;;;;;;;3.85;100.00;101013.44;5079879;28;20205;-81
2021/11/14 00:07:31;;;;;;;20.00;13.00;;;;;;;3.86;100.00;101019.47;5081258;28;20206;-81
2021/11/14 00:09:57;;;;;;;23.80;14.03;;;;;;;3.85;100.00;101012.59;5080255;28;20200;-80
2021/11/14 00:12:24;;;;;;;23.03;12.80;;;;;;;3.85;100.00;101020.31;5080339;28;20818;-80
2021/11/14 00:14:51;;;;;;;24.77;14.03;;;;;;;3.84;100.00;101016.88;5083084;28;20289;-81
2021/11/14 00:17:19;;;;;;;24.73;14.23;;;;;;;3.84;100.00;101021.19;5080175;28;20578;-81
2021/11/14 00:19:45;;;;;;;23.87;13.63;;;;;;;3.83;100.00;101024.59;5082485;28;20221;-81
2021/11/14 00:22:13;;;;;;;25.17;14.10;;;;;;;3.81;100.00;101019.44;5081450;28;20230;-81
2021/11/14 00:24:39;;;;;;;27.07;14.70;;;;;;;3.82;100.00;101023.75;5084000;28;20194;-81
2021/11/14 00:27:06;;;;;;;21.40;13.23;;;;;;;3.82;100.00;101030.59;5080519;28;20210;-80
2021/11/14 00:29:32;;;;;;;26.77;14.10;;;;;;;3.80;100.00;101033.19;5084180;28;20205;-80
2021/11/14 00:31:59;;;;;;;23.90;13.27;;;;;;;3.80;100.00;101033.19;5079044;28;20318;-81
2021/11/14 00:34:26;;;;;;;25.87;14.23;;;;;;;3.79;100.00;101031.47;5083071;28;20209;-81
2021/11/14 00:36:54;;;;;;;28.07;14.10;;;;;;;3.79;100.00;101034.88;5079774;28;20589;-81
2021/11/14 00:39:21;;;;;;;27.00;13.50;;;;;;;3.76;100.00;101037.47;5080432;28;20223;-81
2021/11/14 00:41:48;;;;;;;27.90;15.37;;;;;;;3.77;100.00;101048.63;5078886;28;20226;-82
2021/11/14 00:44:17;;;;;;;27.43;14.87;;;;;;;3.75;100.00;101048.63;5086112;28;20687;-80
2021/11/14 00:46:44;;;;;;;26.53;14.23;;;;;;;3.74;100.00;101054.63;5077076;28;20438;-80
2021/11/14 00:49:10;;;;;;;24.43;14.27;;;;;;;3.74;100.00;101058.91;5086063;28;20212;-82
2021/11/14 00:51:38;;;;;;;27.17;15.10;;;;;;;3.74;100.00;101062.34;5077760;28;20226;-82
2021/11/14 00:54:06;;;;;;;25.17;14.27;;;;;;;3.73;100.00;101063.22;5079689;28;20473;-81
2021/11/14 00:56:33;;;;;;;24.13;14.03;;;;;;;3.75;100.00;101068.41;5077597;28;20306;-81
2021/11/14 00:59:00;;;;;;;23.50;13.87;;;;;;;3.73;100.00;101065.81;5081848;28;20201;-81
2021/11/14 01:01:28;;;;;;;30.23;16.73;;;;;;;3.74;100.00;101070.09;5080209;28;20229;-80
2021/11/14 01:03:54;;;;;;;25.43;15.37;;;;;;;3.76;100.00;101072.69;5082214;28;20216;-80
2021/11/14 01:06:21;;;;;;;30.80;16.43;;;;;;;3.75;100.00;101066.69;5083742;28;20205;-81
2021/11/14 01:08:49;;;;;;;27.53;14.73;;;;;;;3.76;100.00;101065.84;5080898;28;20207;-81
2021/11/14 01:11:16;;;;;;;26.33;15.03;;;;;;;3.76;100.00;101063.25;5080515;28;20237;-81
2021/11/14 01:13:44;;;;;;;32.80;16.27;;;;;;;3.76;100.00;101073.59;5081247;28;20691;-81
2021/11/14 01:16:14;;;;;;;29.60;16.57;;;;;;;3.75;100.00;101074.41;5081193;28;20189;-81
2021/11/14 01:18:41;;;;;;;26.23;15.20;;;;;;;3.75;100.00;101076.13;5079296;28;20825;-81
2021/11/14 01:21:12;;;;;;;26.83;14.50;;;;;;;3.73;100.00;101080.41;5082738;28;20287;-81
2021/11/14 01:23:39;;;;;;;29.23;15.23;;;;;;;3.74;100.00;101083.00;5077580;28;20260;-81
2021/11/14 01:26:08;;;;;;;27.97;15.20;;;;;;;3.73;100.00;101081.28;5083355;28;20209;-80
2021/11/14 01:28:34;;;;;;;27.40;14.93;;;;;;;3.73;100.00;101083.88;5077100;28;20235;-81
2021/11/14 01:31:01;;;;;;;28.60;15.10;;;;;;;3.73;100.00;101082.97;5084766;28;20221;-81
2021/11/14 01:33:29;;;;;;;27.60;15.00;;;;;;;3.71;100.00;101088.16;5077742;28;20201;-81
2021/11/14 01:35:57;;;;;;;29.23;15.80;;;;;;;3.69;100.00;101083.81;5078811;28;20200;-81
2021/11/14 01:38:26;;;;;;;28.70;15.40;;;;;;;3.67;100.00;101081.22;5075224;28;20202;-81
2021/11/14 01:40:55;;;;;;;32.07;16.63;;;;;;;3.65;100.00;101088.06;5083120;28;20252;-81
2021/11/14 01:43:26;;;;;;;30.57;15.20;;;;;;;3.64;100.00;101088.94;5076191;28;20199;-81
2021/11/14 01:45:53;;;;;;;28.83;15.30;;;;;;;3.62;100.00;101085.44;5082009;28;20699;-80
2021/11/14 01:48:21;;;;;;;30.70;15.90;;;;;;;3.64;100.00;101088.06;5079204;28;20212;-81
2021/11/14 01:50:47;;;;;;;26.70;14.97;;;;;;;3.62;100.00;101090.63;5081680;28;20549;-82
2021/11/14 01:53:14;;;;;;;30.47;16.57;;;;;;;3.63;100.00;101088.91;5080304;28;20209;-81
2021/11/14 01:55:43;;;;;;;31.57;17.13;;;;;;;3.62;100.00;101090.63;5080721;28;20204;-82
2021/11/14 01:58:10;;;;;;;29.90;16.57;;;;;;;3.63;100.00;101094.06;5082920;28;20858;-83
2021/11/14 02:00:44;;;;;;;32.90;16.90;;;;;;;3.64;100.00;101101.84;5079390;28;20229;-82
2021/11/14 02:03:11;;;;;;;29.60;16.37;;;;;;;3.64;100.00;101101.84;5081882;28;20221;-83
2021/11/14 02:05:37;;;;;;;26.27;15.93;;;;;;;3.65;100.00;101098.38;5079796;28;20209;-81
2021/11/14 02:08:07;;;;;;;32.63;17.57;;;;;;;3.66;100.00;101100.13;5081507;28;20214;-80
2021/11/14 02:10:35;;;;;;;29.63;15.57;;;;;;;3.67;100.00;101101.84;5078915;28;20707;-81
2021/11/14 02:13:02;;;;;;;30.87;15.53;;;;;;;3.69;100.00;101107.03;5083859;28;20944;-83
2021/11/14 02:15:29;;;;;;;27.80;15.67;;;;;;;3.69;100.00;101099.28;5078503;28;20567;-82
2021/11/14 02:17:57;;;;;;;33.83;16.80;;;;;;;3.68;100.00;101108.75;5083219;28;20216;-82
2021/11/14 02:20:25;;;;;;;27.20;14.40;;;;;;;3.69;100.00;101099.28;5075736;28;20225;-82
2021/11/14 02:22:52;;;;;;;27.67;16.80;;;;;;;3.69;100.00;101109.59;5084482;28;20222;-81
2021/11/14 02:25:21;;;;;;;29.67;16.20;;;;;;;3.68;100.00;101106.16;5078916;28;20575;-80
2021/11/14 02:27:50;;;;;;;30.37;15.03;;;;;;;3.69;100.00;101107.03;5081791;28;20500;-82
2021/11/14 02:30:18;;;;;;;27.37;15.43;;;;;;;3.68;100.00;101111.31;5082334;28;20198;-81
2021/11/14 02:32:45;;;;;;;27.77;15.97;;;;;;;3.68;100.00;101115.63;5080781;28;20228;-81
2021/11/14 02:35:13;;;;;;;29.10;15.00;;;;;;;3.67;100.00;101112.16;5078254;28;20202;-83
2021/11/14 02:37:41;;;;;;;28.27;16.53;;;;;;;3.68;100.00;101115.63;5087008;28;20275;-81
2021/11/14 02:40:09;;;;;;;30.50;16.00;;;;;;;3.68;100.00;101116.47;5083881;28;20214;-81
2021/11/14 02:42:36;;;;;;;26.13;13.77;;;;;;;3.67;100.00;101119.03;5088087;28;20232;-81
2021/11/14 02:45:06;;;;;;;26.90;15.80;;;;;;;3.67;100.00;101117.31;5084901;28;20565;-81
2021/11/14 02:47:33;;;;;;;28.67;14.40;;;;;;;3.66;100.00;101122.44;5084888;28;20935;-81
2021/11/14 02:49:59;;;;;;;26.83;15.13;;;;;;;3.66;100.00;101118.19;5085401;28;20205;-81
2021/11/14 02:52:26;;;;;;;25.93;14.70;;;;;;;3.66;100.00;101123.34;5085771;28;20221;-81
2021/11/14 02:54:54;;;;;;;24.37;13.40;;;;;;;3.66;100.00;101117.28;5083795;28;20292;-80
2021/11/14 02:57:20;;;;;;;25.40;13.03;;;;;;;3.65;100.00;101128.47;5081037;28;20199;-82
2021/11/14 02:59:47;;;;;;;27.00;14.83;;;;;;;3.64;100.00;101127.63;5084114;28;20294;-81
2021/11/14 03:02:13;;;;;;;26.60;15.20;;;;;;;3.65;100.00;101125.91;5079913;28;21117;-82
2021/11/14 03:04:40;;;;;;;26.60;14.20;;;;;;;3.64;100.00;101124.16;5084534;28;20206;-81
2021/11/14 03:07:06;;;;;;;28.30;15.53;;;;;;;3.64;100.00;101130.19;5080815;28;20657;-80
2021/11/14 03:09:34;;;;;;;26.80;14.83;;;;;;;3.63;100.00;101128.47;5085163;28;20212;-79
2021/11/14 03:12:02;;;;;;;27.70;15.73;;;;;;;3.63;100.00;101131.03;5078334;28;20230;-81
2021/11/14 03:14:29;;;;;;;28.07;15.13;;;;;;;3.63;100.00;101132.75;5084597;28;20212;-82
2021/11/14 03:16:55;;;;;;;26.03;14.50;;;;;;;3.63;100.00;101127.59;5078762;28;20205;-81
2021/11/14 03:19:23;;;;;;;29.60;15.43;;;;;;;3.62;100.00;101134.44;5085389;28;20325;-81
2021/11/14 03:21:49;;;;;;;31.80;16.07;;;;;;;3.60;100.00;101124.13;5079687;28;20230;-82
2021/11/14 03:24:17;;;;;;;28.70;15.13;;;;;;;3.61;100.00;101130.16;5087507;28;20406;-82
2021/11/14 03:26:43;;;;;;;23.50;13.10;;;;;;;3.59;100.00;101127.56;5078126;28;20202;-81
2021/11/14 03:29:12;;;;;;;26.23;14.43;;;;;;;3.60;100.00;101131.00;5086295;28;20210;-81
2021/11/14 03:31:40;;;;;;;23.90;13.10;;;;;;;3.57;100.00;101136.13;5080662;28;20223;-81
2021/11/14 03:34:07;;;;;;;27.43;14.27;;;;;;;3.56;100.00;101137.84;5083682;28;20679;-80
2021/11/14 03:36:34;;;;;;;30.63;14.97;;;;;;;3.57;100.00;101138.69;5081150;28;20739;-82
2021/11/14 03:39:03;;;;;;;28.47;14.57;;;;;;;3.57;100.00;101144.75;5080354;28;20215;-81
2021/11/14 03:41:32;;;;;;;25.67;14.40;;;;;;;3.58;100.00;101141.28;5082676;28;20226;-82
2021/11/14 03:44:00;;;;;;;26.80;14.33;;;;;;;3.60;100.00;101143.88;5080329;28;20210;-82
2021/11/14 03:46:28;;;;;;;24.20;14.67;;;;;;;3.61;100.00;101155.94;5082583;28;20286;-83
2021/11/14 03:48:56;;;;;;;28.13;14.33;;;;;;;3.61;100.00;101150.78;5081598;28;20208;-82
2021/11/14 03:51:24;;;;;;;24.70;14.27;;;;;;;3.60;100.00;101149.03;5083972;28;20226;-82
2021/11/14 03:53:51;;;;;;;30.63;15.97;;;;;;;3.60;100.00;101155.06;5080519;28;20209;-82
2021/11/14 03:56:17;;;;;;;25.80;15.57;;;;;;;3.60;100.00;101151.63;5083892;28;20206;-81
2021/11/14 03:58:44;;;;;;;25.20;14.10;;;;;;;3.61;100.00;101153.38;5078450;28;20271;-80
2021/11/14 04:01:13;;;;;;;25.23;13.77;;;;;;;3.62;100.00;101154.22;5084177;28;20221;-81
2021/11/14 04:03:42;;;;;;;29.37;14.53;;;;;;;3.62;100.00;101160.25;5078690;28;20251;-81
2021/11/14 04:06:10;;;;;;;23.87;13.93;;;;;;;3.60;100.00;101151.63;5085008;28;20209;-81
2021/11/14 04:08:36;;;;;;;26.30;14.63;;;;;;;3.62;100.00;101159.38;5077937;28;20668;-82
2021/11/14 04:11:03;;;;;;;24.37;13.87;;;;;;;3.60;100.00;101154.22;5086293;28;20235;-81
2021/11/14 04:13:31;;;;;;;26.97;15.40;;;;;;;3.61;100.00;101150.78;5080646;28;20217;-81
2021/11/14 04:15:59;;;;;;;25.13;14.67;;;;;;;3.60;100.00;101155.06;5086670;28;20204;-81
2021/11/14 04:18:26;;;;;;;25.97;14.50;;;;;;;3.59;100.00;101158.50;5079918;28;20206;-81
2021/11/14 04:20:54;;;;;;;23.07;12.93;;;;;;;3.59;100.00;101167.97;5084686;28;20222;-82
2021/11/14 04:23:21;;;;;;;26.13;14.33;;;;;;;3.59;100.00;101168.81;5080358;28;20232;-81
2021/11/14 04:25:49;;;;;;;24.80;13.33;;;;;;;3.58;100.00;101168.81;5084688;28;20572;-81
2021/11/14 04:28:18;;;;;;;22.57;12.47;;;;;;;3.58;100.00;101179.97;5080799;28;20201;-82
2021/11/14 04:30:46;;;;;;;22.83;13.87;;;;;;;3.58;100.00;101179.97;5082097;28;20186;-83
2021/11/14 04:33:13;;;;;;;26.87;12.93;;;;;;;3.55;100.00;101179.97;5079618;28;20615;-81
2021/11/14 04:35:40;;;;;;;26.00;13.27;;;;;;;3.55;100.00;101176.50;5080941;28;20214;-82
2021/11/14 04:38:07;;;;;;;22.57;12.20;;;;;;;3.55;100.00;101184.22;5082477;28;20701;-82
2021/11/14 04:40:36;;;;;;;23.90;13.50;;;;;;;3.55;100.00;101182.53;5078648;28;20781;-81
2021/11/14 04:43:05;;;;;;;24.73;13.87;;;;;;;3.52;100.00;101186.78;5084285;28;20228;-82
2021/11/14 04:45:33;;;;;;;30.33;14.23;;;;;;;3.53;100.00;101188.50;5080393;28;20214;-82
2021/11/14 04:48:00;;;;;;;29.50;15.00;;;;;;;3.51;100.00;101192.78;5082955;28;20281;-82
2021/11/14 04:50:27;;;;;;;26.63;14.20;;;;;;;3.48;100.00;101187.59;5079227;28;20580;-81
2021/11/14 04:52:54;;;;;;;22.93;13.07;;;;;;;3.46;100.00;101195.28;5083985;28;20253;-80
2021/11/14 04:55:22;;;;;;;24.47;13.37;;;;;;;3.47;100.00;101193.59;5081430;28;20198;-80
2021/11/14 04:57:51;;;;;;;26.73;14.10;;;;;;;3.48;100.00;101200.47;5084002;28;20227;-81
2021/11/14 05:00:21;;;;;;;21.67;12.70;;;;;;;3.50;100.00;101209.97;5077504;28;21011;-83
2021/11/14 05:02:47;;;;;;;23.50;13.30;;;;;;;3.50;100.00;101201.34;5082608;28;20230;-82
2021/11/14 05:05:14;;;;;;;30.07;15.13;;;;;;;3.50;100.00;101203.94;5078745;28;20207;-81
2021/11/14 05:07:40;;;;;;;30.03;15.77;;;;;;;3.50;100.00;101199.66;5084918;28;20205;-81
2021/11/14 05:10:08;;;;;;;29.83;16.17;;;;;;;3.52;100.00;101216.00;5080567;28;20213;-81
2021/11/14 05:12:36;;;;;;;26.87;14.50;;;;;;;3.53;100.00;101212.56;5081585;28;20217;-81
2021/11/14 05:15:03;;;;;;;29.63;15.70;;;;;;;3.53;100.00;101203.97;5079867;28;20652;-81
2021/11/14 05:17:30;;;;;;;42.43;29.17;;;;;;;3.54;100.00;101218.63;5083859;28;20210;-81
2021/11/14 05:19:56;;;;;;;37.37;24.27;;;;;;;3.55;100.00;101216.06;5081284;28;20197;-81
2021/11/14 05:22:22;;;;;;;31.73;17.67;;;;;;;3.57;100.00;101219.53;5083048;28;20235;-81
2021/11/14 05:24:49;;;;;;;27.80;15.37;;;;;;;3.58;100.00;101220.38;5078867;28;20202;-80
2021/11/14 05:27:16;;;;;;;33.40;18.10;;;;;;;3.58;100.00;101225.53;5082801;28;20299;-81
2021/11/14 05:29:44;;;;;;;29.40;17.23;;;;;;;3.57;100.00;101224.69;5079448;28;20296;-80
2021/11/14 05:32:10;;;;;;;30.80;16.10;;;;;;;3.58;100.00;101228.97;5081049;28;20224;-83
2021/11/14 05:34:37;;;;;;;26.23;15.27;;;;;;;3.57;100.00;101232.41;5080938;28;20198;-81
2021/11/14 05:37:04;;;;;;;21.10;12.53;;;;;;;3.59;100.00;101238.44;5081831;28;20213;-81
2021/11/14 05:39:30;;;;;;;27.87;14.23;;;;;;;3.60;100.00;101245.31;5079035;28;20216;-82
2021/11/14 05:41:57;;;;;;;26.50;14.30;;;;;;;3.60;100.00;101242.75;5081099;28;20232;-82
2021/11/14 05:44:23;;;;;;;28.47;15.30;;;;;;;3.63;100.00;101252.25;5079024;28;20277;-83
2021/11/14 05:46:51;;;;;;;31.50;16.17;;;;;;;3.65;100.00;101247.09;5076795;28;21233;-83
2021/11/14 05:49:18;;;;;;;27.73;15.27;;;;;;;3.67;100.00;101248.00;5080406;28;20209;-83
2021/11/14 05:51:45;;;;;;;29.33;15.60;;;;;;;3.69;100.00;101254.88;5073281;28;20674;-82
2021/11/14 05:54:12;;;;;;;32.43;16.37;;;;;;;3.69;100.00;101254.88;5083099;28;20297;-82
2021/11/14 05:56:38;;;;;;;28.47;15.40;;;;;;;3.72;100.00;101265.25;5078399;28;20727;-82
2021/11/14 05:59:12;;;;;;;25.03;14.60;;;;;;;3.73;100.00;101266.09;5082340;28;20205;-82
2021/11/14 06:01:42;;;;;;;27.93;16.10;;;;;;;3.72;100.00;101269.53;5074247;28;20263;-82
2021/11/14 06:04:17;;;;;;;27.67;15.73;;;;;;;3.73;100.00;101281.56;5079505;28;20922;-81
2021/11/14 06:06:44;;;;;;;28.13;15.57;;;;;;;3.74;100.00;101284.19;5080929;28;20205;-81
2021/11/14 06:09:10;;;;;;;23.27;12.77;;;;;;;3.75;100.00;101293.66;5082779;28;20204;-81
2021/11/14 06:11:37;;;;;;;30.83;15.90;;;;;;;3.74;100.00;101286.75;5080724;28;20709;-81
2021/11/14 06:14:04;;;;;;;29.90;15.47;;;;;;;3.72;100.00;101283.31;5086172;28;20626;-81
2021/11/14 06:16:30;;;;;;;25.50;14.70;;;;;;;3.75;100.00;101285.94;5083762;28;20228;-80
2021/11/14 06:18:57;;;;;;;24.17;13.83;;;;;;;3.76;100.00;101286.78;5082356;28;20211;-79
2021/11/14 06:21:25;;;;;;;27.77;14.93;;;;;;;3.75;100.00;101293.66;5080093;28;20225;-79
2021/11/14 06:23:52;;;;;;;24.43;13.90;;;;;;;3.75;100.00;101291.09;5081384;28;20209;-79
2021/11/14 06:26:19;;;;;;;27.30;14.80;;;;;;;3.77;100.00;101301.44;5081972;28;20297;-82
2021/11/14 06:28:45;;;;;;;26.23;14.00;;;;;;;3.77;100.00;101309.16;5079332;28;20208;-79
2021/11/14 06:31:12;;;;;;;31.50;16.53;;;;;;;3.77;100.00;101312.59;5083282;28;20224;-79
2021/11/14 06:33:38;;;;;;;29.63;16.10;;;;;;;3.78;100.00;101318.63;5082168;28;20203;-81
2021/11/14 06:36:05;;;;;;;25.30;15.47;;;;;;;3.80;100.00;101324.69;5084102;28;20207;-80
2021/11/14 06:38:33;;;;;;;29.70;16.20;;;;;;;3.81;100.00;101323.81;5081275;28;20617;-80
2021/11/14 06:40:59;;;;;;;30.03;16.40;;;;;;;3.84;100.00;101333.34;5083482;28;20472;-79
2021/11/14 06:43:28;;;;;;;31.87;16.17;;;;;;;3.86;100.00;101334.22;5083011;28;20206;-80
2021/11/14 06:45:54;;;;;;;36.37;18.07;;;;;;;3.87;100.00;101349.72;5083278;28;20940;-79
2021/11/14 06:48:21;;;;;;;35.83;18.53;;;;;;;3.89;100.00;101350.59;5079425;28;20297;-82
2021/11/14 06:50:47;;;;;;;32.63;17.07;;;;;;;3.91;100.00;101355.78;5083816;28;20288;-80
2021/11/14 06:53:14;;;;;;;35.27;17.60;;;;;;;3.94;100.00;101345.47;5077066;28;20293;-79
2021/11/14 06:55:41;;;;;;;31.40;17.67;;;;;;;3.97;100.00;101356.72;5084866;28;20201;-82
2021/11/14 06:58:08;;;;;;;34.70;18.50;;;;;;;3.98;100.00;101361.03;5078675;28;20635;-80
2021/11/14 07:00:34;;;;;;;31.37;18.07;;;;;;;4.00;100.00;101370.53;5084258;28;20214;-81
2021/11/14 07:03:01;;;;;;;36.20;18.50;;;;;;;4.01;100.00;101372.22;5079150;28;20215;-80
2021/11/14 07:05:27;;;;;;;31.93;16.70;;;;;;;4.04;100.00;101380.03;5084003;28;20300;-80
2021/11/14 07:07:54;;;;;;;33.87;17.60;;;;;;;4.07;100.00;101383.50;5079691;28;20198;-81
2021/11/14 07:10:22;;;;;;;34.10;17.97;;;;;;;4.11;100.00;101385.25;5084057;28;20217;-80
2021/11/14 07:12:49;;;;;;;37.87;22.90;;;;;;;4.15;100.00;101389.63;5078614;27;20214;-80
2021/11/14 07:15:16;;;;;;;46.30;25.97;;;;;;;4.17;100.00;101390.53;5082533;28;20206;-80
2021/11/14 07:17:44;;;;;;;42.63;26.00;;;;;;;4.22;100.00;101394.88;5081293;28;20705;-80
2021/11/14 07:20:13;;;;;;;48.03;29.20;;;;;;;4.25;100.00;101403.50;5081318;28;20213;-80
2021/11/14 07:22:39;;;;;;;55.87;30.63;;;;;;;4.27;100.00;101396.66;5078856;28;20244;-80
2021/11/14 07:25:07;;;;;;;54.37;29.60;;;;;;;4.32;100.00;101407.91;5080097;28;20206;-80
2021/11/14 07:27:34;;;;;;;54.17;29.70;;;;;;;4.39;100.00;101408.00;5082264;28;20204;-84
2021/11/14 07:30:02;;;;;;;48.77;27.57;;;;;;;4.46;100.00;101407.22;5079026;28;20214;-82
2021/11/14 07:32:29;;;;;;;44.97;23.80;;;;;;;4.53;100.00;101406.44;5086131;28;20721;-82
2021/11/14 07:34:55;;;;;;;36.17;20.13;;;;;;;4.60;100.00;101407.38;5081692;28;20216;-80
2021/11/14 07:37:22;;;;;;;34.30;19.83;;;;;;;4.65;100.00;101410.88;5081997;28;20274;-80
2021/11/14 07:39:49;;;;;;;38.57;19.27;;;;;;;4.73;100.00;101415.28;5077084;28;20234;-81
2021/11/14 07:42:15;;;;;;;39.47;18.70;;;;;;;4.75;100.00;101410.13;5080897;28;20230;-80
2021/11/14 07:44:41;;;;;;;34.40;18.23;;;;;;;4.82;100.00;101411.03;5076799;28;20209;-80
2021/11/14 07:47:09;;;;;;;34.33;19.17;;;;;;;4.93;100.00;101415.47;5084263;28;20201;-80
2021/11/14 07:49:36;;;;;;;38.13;18.83;;;;;;;5.05;100.00;101416.44;5075246;28;20312;-81
2021/11/14 07:52:02;;;;;;;37.13;19.33;;;;;;;5.11;100.00;101417.34;5083734;28;20225;-80
2021/11/14 07:54:29;;;;;;;33.10;18.30;;;;;;;5.16;100.00;101417.41;5076702;28;20210;-80
2021/11/14 07:56:55;;;;;;;35.10;18.63;;;;;;;5.25;100.00;101420.06;5083041;28;20213;-81
2021/11/14 07:59:22;;;;;;;36.70;18.90;;;;;;;5.29;100.00;101419.25;5077113;28;20209;-80
2021/11/14 08:01:48;;;;;;;33.03;17.47;;;;;;;5.39;100.00;101430.50;5081288;28;20221;-80
2021/11/14 08:04:17;;;;;;;32.27;18.03;;;;;;;5.44;100.00;101431.41;5081048;28;20583;-80
2021/11/14 08:06:43;;;;;;;33.80;18.23;;;;;;;5.46;100.00;101429.69;5081715;28;20210;-80
2021/11/14 08:09:09;;;;;;;30.50;17.40;;;;;;;5.44;100.00;101434.00;5076971;28;20202;-83
2021/11/14 08:11:36;;;;;;;30.63;17.00;;;;;;;5.49;100.00;101434.06;5082937;28;20225;-82
2021/11/14 08:14:03;;;;;;;31.67;17.60;;;;;;;5.47;100.00;101441.78;5079289;28;20210;-82
2021/11/14 08:16:29;;;;;;;27.80;16.53;;;;;;;5.48;100.00;101440.91;5081980;28;20249;-80
2021/11/14 08:18:56;;;;;;;28.23;16.73;;;;;;;5.48;100.00;101445.25;5080606;28;20206;-82
2021/11/14 08:21:24;;;;;;;29.60;16.23;;;;;;;5.54;100.00;101447.00;5080385;28;20716;-82
2021/11/14 08:23:50;;;;;;;31.80;17.83;;;;;;;5.57;100.00;101457.38;5084468;28;20208;-81
2021/11/14 08:26:16;;;;;;;30.77;17.63;;;;;;;5.54;100.00;101454.75;5083030;28;20193;-82
2021/11/14 08:28:43;;;;;;;30.20;16.73;;;;;;;5.56;100.00;101464.28;5081923;28;20202;-82
2021/11/14 08:31:09;;;;;;;34.17;18.90;;;;;;;5.61;100.00;101472.06;5078898;28;20232;-82
2021/11/14 08:33:36;;;;;;;33.13;21.80;;;;;;;5.62;100.00;101469.50;5081655;28;20198;-80
2021/11/14 08:36:02;;;;;;;40.47;25.60;;;;;;;5.63;100.00;101478.16;5074645;28;20213;-81
2021/11/14 08:38:30;;;;;;;31.90;18.37;;;;;;;5.64;100.00;101474.69;5079516;28;20595;-83
2021/11/14 08:40:57;;;;;;;37.03;21.10;;;;;;;5.65;100.00;101487.63;5077986;28;20202;-84
2021/11/14 08:43:24;;;;;;;31.77;18.33;;;;;;;5.69;100.00;101488.53;5080905;28;20236;-80
2021/11/14 08:45:50;;;;;;;31.93;16.90;;;;;;;5.73;100.00;101492.00;5077591;28;20206;-82
2021/11/14 08:48:17;;;;;;;32.83;17.93;;;;;;;5.68;100.00;101482.50;5080450;28;20210;-83
2021/11/14 08:50:46;;;;;;;29.80;17.07;;;;;;;5.68;100.00;101492.84;5079200;28;20212;-83
2021/11/14 08:53:13;;;;;;;32.83;18.93;;;;;;;5.67;100.00;101485.91;5084836;28;20293;-77
2021/11/14 08:55:40;;;;;;;33.73;19.30;;;;;;;5.69;100.00;101489.38;5083775;28;20214;-88
2021/11/14 08:58:07;;;;;;;29.27;17.30;;;;;;;5.75;100.00;101490.28;5086862;28;20424;-82
2021/11/14 09:00:34;;;;;;;30.53;17.97;;;;;;;5.80;100.00;101496.38;5083988;28;20198;-87
2021/11/14 09:03:02;;;;;;;34.23;19.77;;;;;;;5.87;100.00;101493.84;5085256;28;20296;-83
2021/11/14 09:05:31;;;;;;;31.50;18.10;;;;;;;5.92;100.00;101495.59;5084824;28;20198;-82
2021/11/14 09:08:00;;;;;;;29.10;16.80;;;;;;;5.97;100.00;101504.28;5088938;28;20202;-82
2021/11/14 09:10:28;;;;;;;28.23;16.73;;;;;;;6.06;100.00;101505.22;5084907;28;20300;-82
2021/11/14 09:12:56;;;;;;;29.17;17.27;;;;;;;6.09;100.00;101506.09;5087650;28;20233;-87
2021/11/14 09:15:24;;;;;;;34.77;20.47;;;;;;;6.11;100.00;101501.81;5086790;28;20261;-81
2021/11/14 09:17:51;;;;;;;31.73;17.83;;;;;;;6.20;100.00;101509.63;5087418;28;20214;-84
2021/11/14 09:20:18;;;;;;;28.27;17.70;;;;;;;6.33;100.00;101505.38;5088708;28;20292;-82
2021/11/14 09:22:45;;;;;;;30.87;17.13;;;;;;;6.35;100.00;101508.81;5087985;28;20228;-86
2021/11/14 09:25:12;;;;;;;31.67;17.37;;;;;;;6.41;100.00;101511.47;5088645;28;20294;-83
2021/11/14 09:27:38;;;;;;;26.03;16.23;;;;;;;6.49;100.00;101522.75;5083965;28;20211;-87
2021/11/14 09:30:08;;;;;;;29.70;18.07;;;;;;;6.58;100.00;101517.59;5087902;28;20194;-87
2021/11/14 09:32:35;;;;;;;27.93;16.27;;;;;;;6.63;100.00;101525.38;5081722;28;20733;-85
2021/11/14 09:35:02;;;;;;;25.87;16.87;;;;;;;6.64;100.00;101516.75;5089433;28;20672;-87
2021/11/14 09:37:28;;;;;;;30.53;17.80;;;;;;;6.60;100.00;101527.97;5086165;28;20220;-86
2021/11/14 09:39:55;;;;;;;29.53;17.60;;;;;;;6.71;100.00;101538.38;5085280;28;20956;-82
2021/11/14 09:42:25;;;;;;;27.13;16.60;;;;;;;6.69;100.00;101538.38;5083130;28;20226;-86
2021/11/14 09:44:52;;;;;;;29.30;16.97;;;;;;;6.74;100.00;101543.59;5089038;28;20196;-84
2021/11/14 09:47:19;;;;;;;29.57;17.57;;;;;;;6.77;100.00;101548.75;5087845;28;20294;-84
2021/11/14 09:49:46;;;;;;;27.63;16.33;;;;;;;6.86;100.00;101540.16;5089622;28;20289;-85
2021/11/14 09:52:13;;;;;;;29.80;17.67;;;;;;;6.85;100.00;101538.44;5089236;28;20219;-83
2021/11/14 09:54:40;;;;;;;32.23;18.83;;;;;;;6.89;100.00;101548.81;5089624;28;20662;-83
2021/11/14 09:57:07;;;;;;;28.80;17.40;;;;;;;6.93;100.00;101550.56;5089406;28;20212;-85
2021/11/14 09:59:34;;;;;;;28.57;16.43;;;;;;;6.91;100.00;101548.81;5090588;28;20226;-89
2021/11/14 10:02:04;;;;;;;29.57;16.87;;;;;;;6.96;100.00;101555.75;5089160;28;20243;-84
2021/11/14 10:04:32;;;;;;;27.00;16.40;;;;;;;7.04;100.00;101554.94;5090007;28;20673;-89
2021/11/14 10:07:00;;;;;;;30.60;17.33;;;;;;;7.04;100.00;101562.72;5087648;28;20210;-83
2021/11/14 10:09:32;;;;;;;25.50;15.80;;;;;;;7.05;100.00;101567.03;5086788;28;20209;-84
2021/11/14 10:12:09;;;;;;;26.37;16.33;;;;;;;6.98;100.00;101563.53;5086968;28;20327;-83
2021/11/14 10:14:35;;;;;;;27.20;17.50;;;;;;;7.06;100.00;101566.19;5087460;28;20197;-84
2021/11/14 10:17:14;;;;;;;26.80;17.30;;;;;;;7.02;100.00;101567.91;5089991;28;20310;-85
2021/11/14 10:19:42;;;;;;;28.87;17.60;;;;;;;7.04;100.00;101566.16;5080667;28;20208;-84
2021/11/14 10:22:08;;;;;;;28.03;17.33;;;;;;;7.01;100.00;101568.75;5089580;28;20609;-84
2021/11/14 10:24:36;;;;;;;24.17;15.30;;;;;;;7.11;100.00;101559.28;5087520;28;20205;-83
2021/11/14 10:27:10;;;;;;;29.13;16.23;;;;;;;7.14;100.00;101574.81;5091372;28;20209;-88
2021/11/14 10:29:39;;;;;;;29.97;16.60;;;;;;;7.12;100.00;101567.03;5083600;28;20309;-84
2021/11/14 10:32:08;;;;;;;25.70;16.33;;;;;;;7.19;100.00;101566.22;5088954;28;20248;-83
2021/11/14 10:34:47;;;;;;;29.00;15.80;;;;;;;7.19;100.00;101570.53;5085790;28;20299;-83
2021/11/14 10:37:14;;;;;;;28.00;16.63;;;;;;;7.17;100.00;101575.69;5088175;28;20195;-84
2021/11/14 10:39:41;;;;;;;27.73;16.50;;;;;;;7.18;100.00;101568.81;5085831;28;20194;-84
2021/11/14 10:42:13;;;;;;;25.73;16.40;;;;;;;7.21;100.00;101571.38;5088086;28;20671;-83
2021/11/14 10:44:46;;;;;;;27.97;16.40;;;;;;;7.23;100.00;101574.88;5086018;28;20388;-86
2021/11/14 10:47:13;;;;;;;27.27;15.90;;;;;;;7.22;100.00;101582.66;5088824;28;20208;-81
2021/11/14 10:49:55;;;;;;;28.80;17.30;;;;;;;7.20;100.00;101585.25;5088947;28;20205;-84
2021/11/14 10:52:23;;;;;;;26.57;16.90;;;;;;;7.19;100.00;101583.50;5086865;28;20311;-84
2021/11/14 10:54:58;;;;;;;25.23;16.67;;;;;;;7.19;100.00;101580.91;5089083;28;20223;-83
2021/11/14 10:57:26;;;;;;;25.60;15.60;;;;;;;7.24;100.00;101583.53;5085818;28;20231;-83
2021/11/14 10:59:53;;;;;;;28.03;16.23;;;;;;;7.24;100.00;101581.78;5083457;28;20205;-84
2021/11/14 11:02:21;;;;;;;27.87;16.67;;;;;;;7.23;100.00;101579.19;5078472;28;20323;-84
2021/11/14 11:04:48;;;;;;;25.83;17.00;;;;;;;7.22;100.00;101583.50;5087784;28;20288;-83
2021/11/14 11:07:16;;;;;;;27.80;16.53;;;;;;;7.25;100.00;101573.16;5082656;28;20212;-86
2021/11/14 11:09:43;;;;;;;28.60;16.57;;;;;;;7.30;100.00;101580.94;5086069;28;20215;-85